Time;durP1;ratioP1;P1;durP2;ratioP2;P2;SDS_P1;SDS_P2;PMS_P1;PMS_P2;Temp;Humidity;BMP_temperature;BMP_pressure;BME280_temperature;BME280_humidity;BME280_pressure;Samples;Min_cycle;Max_cycle;Signal;HPM_P1;HPM_P2
2022/12/22 03:27:47;;;;;;;34.85;19.17;;;;;;;5.75;100.00;100872.56;5092816;28;20039;-72
2022/12/22 03:30:13;;;;;;;39.50;20.95;;;;;;;5.74;100.00;100871.72;5089170;28;20037;-71
2022/12/22 03:32:38;;;;;;;45.08;20.52;;;;;;;5.76;100.00;100876.81;5090914;28;20028;-71
2022/12/22 03:35:05;;;;;;;35.85;21.00;;;;;;;5.75;100.00;100875.16;5090757;28;20028;-71
2022/12/22 03:37:30;;;;;;;34.33;19.00;;;;;;;5.74;100.00;100878.66;5087220;28;20082;-72
2022/12/22 03:39:56;;;;;;;33.35;19.50;;;;;;;5.72;100.00;100870.19;5090148;28;20547;-72
2022/12/22 03:47:49;;;;;;;32.78;18.85;;;;;;;5.58;100.00;100871.13;5081690;28;20501;-71
2022/12/22 03:50:15;;;;;;;35.35;19.88;;;;;;;5.53;100.00;100871.44;5090224;28;20036;-71
2022/12/22 03:52:40;;;;;;;39.08;20.50;;;;;;;5.55;100.00;100868.75;5088969;28;20036;-72
2022/12/22 03:55:06;;;;;;;36.97;21.00;;;;;;;5.55;100.00;100872.16;5092895;28;20048;-71
2022/12/22 03:57:31;;;;;;;35.17;17.92;;;;;;;5.57;100.00;100869.47;5087627;28;20040;-71
2022/12/22 03:59:56;;;;;;;43.88;19.88;;;;;;;5.60;100.00;100870.09;5087043;28;20380;-71
2022/12/22 04:02:22;;;;;;;40.45;19.58;;;;;;;5.63;100.00;100882.00;5087265;28;20032;-71
2022/12/22 04:04:47;;;;;;;35.35;18.90;;;;;;;5.63;100.00;100882.00;5089734;28;20024;-71
2022/12/22 04:07:13;;;;;;;36.92;20.23;;;;;;;5.61;100.00;100884.69;5089520;28;20028;-72
2022/12/22 04:12:53;;;;;;;35.20;18.05;;;;;;;5.61;100.00;100879.50;5088252;28;20472;-72
2022/12/22 04:15:08;;;;;;;74.75;27.17;;;;;;;5.60;100.00;100861.53;5086956;28;20092;-71
2022/12/22 04:17:33;;;;;;;58.30;26.33;;;;;;;5.59;100.00;100860.69;5086974;28;20387;-71
2022/12/22 04:19:59;;;;;;;64.63;29.55;;;;;;;5.61;100.00;100863.16;5096138;28;20024;-72
2022/12/22 04:22:24;;;;;;;111.80;36.13;;;;;;;5.62;100.00;100868.25;5088489;28;20110;-71
2022/12/22 04:24:50;;;;;;;105.47;35.00;;;;;;;5.64;100.00;100879.31;5089599;28;20040;-72
2022/12/22 04:27:15;;;;;;;98.03;35.13;;;;;;;5.66;100.00;100877.44;5084527;28;20028;-71
2022/12/22 04:29:40;;;;;;;100.80;38.78;;;;;;;5.68;100.00;100883.31;5092060;28;20455;-71
2022/12/22 04:32:06;;;;;;;146.30;47.08;;;;;;;5.68;100.00;100885.91;5092912;28;20490;-71
2022/12/22 04:34:31;;;;;;;154.60;50.92;;;;;;;5.67;100.00;100888.63;5093378;28;20089;-72
2022/12/22 04:36:56;;;;;;;173.15;59.13;;;;;;;5.65;100.00;100891.31;5089947;28;20032;-71
2022/12/22 04:39:22;;;;;;;142.02;55.83;;;;;;;5.64;100.00;100897.41;5093371;28;20046;-71
2022/12/22 04:41:47;;;;;;;201.07;67.03;;;;;;;5.64;100.00;100891.41;5087684;28;20028;-71
2022/12/22 04:44:13;;;;;;;177.65;58.00;;;;;;;5.61;100.00;100897.59;5094320;28;20032;-71
2022/12/22 04:46:38;;;;;;;196.13;65.53;;;;;;;5.60;100.00;100895.94;5083780;28;20733;-72
2022/12/22 04:49:03;;;;;;;176.43;63.20;;;;;;;5.59;100.00;100896.06;5086836;28;20478;-71
2022/12/22 04:51:29;;;;;;;178.35;65.63;;;;;;;5.58;100.00;100890.06;5086530;28;20046;-71
2022/12/22 04:53:54;;;;;;;176.88;61.63;;;;;;;5.58;100.00;100905.56;5086231;28;20102;-70
2022/12/22 04:56:20;;;;;;;174.30;67.60;;;;;;;5.55;100.00;100895.44;5086708;28;20559;-72
2022/12/22 04:58:45;;;;;;;177.52;69.32;;;;;;;5.53;100.00;100897.28;5087542;28;20032;-71
2022/12/22 05:01:14;;;;;;;197.20;69.70;;;;;;;5.50;100.00;100900.06;5088231;28;20040;-71
2022/12/22 05:03:39;;;;;;;189.93;72.15;;;;;;;5.47;100.00;100892.50;5084910;28;20441;-70
2022/12/22 05:06:05;;;;;;;181.65;72.93;;;;;;;5.45;100.00;100899.53;5087369;28;20028;-71
2022/12/22 05:08:30;;;;;;;176.25;71.40;;;;;;;5.45;100.00;100903.88;5093238;28;20102;-71
2022/12/22 05:10:56;;;;;;;194.88;73.70;;;;;;;5.46;100.00;100905.53;5083355;28;20032;-71
2022/12/22 05:13:21;;;;;;;210.80;76.28;;;;;;;5.42;100.00;100894.56;5086988;28;20020;-71
2022/12/22 05:15:46;;;;;;;218.15;76.28;;;;;;;5.39;100.00;100894.78;5086387;28;20045;-71
2022/12/22 05:18:12;;;;;;;194.60;74.63;;;;;;;5.35;100.00;100890.72;5084513;28;20079;-72
2022/12/22 05:20:37;;;;;;;250.88;80.07;;;;;;;5.37;100.00;100896.63;5090893;28;20036;-72
2022/12/22 05:23:03;;;;;;;261.33;77.78;;;;;;;5.38;100.00;100898.28;5088381;28;20031;-72
2022/12/22 05:25:29;;;;;;;258.52;73.70;;;;;;;5.39;100.00;100899.94;5085947;28;20032;-72
2022/12/22 05:27:54;;;;;;;253.93;78.20;;;;;;;5.40;100.00;100893.00;5085385;28;20034;-71
2022/12/22 05:30:20;;;;;;;255.55;74.68;;;;;;;5.41;100.00;100895.50;5089239;28;20040;-72
2022/12/22 05:32:46;;;;;;;270.73;79.35;;;;;;;5.40;100.00;100887.84;5089498;28;20028;-71
2022/12/22 05:35:12;;;;;;;254.18;77.80;;;;;;;5.39;100.00;100884.44;5086386;28;20031;-72
2022/12/22 05:37:37;;;;;;;307.00;79.72;;;;;;;5.41;100.00;100887.75;5084184;28;20032;-71
2022/12/22 05:40:04;;;;;;;256.27;75.55;;;;;;;5.41;100.00;100892.91;5086696;28;20032;-72
2022/12/22 05:42:35;;;;;;;477.88;86.70;;;;;;;5.41;100.00;100898.09;5092728;28;20036;-72
2022/12/22 05:45:06;;;;;;;392.67;81.75;;;;;;;5.41;100.00;100897.25;5088323;28;20383;-72
2022/12/22 05:47:32;;;;;;;425.10;78.38;;;;;;;5.41;100.00;100898.09;5087353;28;20028;-71
2022/12/22 05:49:58;;;;;;;496.17;89.70;;;;;;;5.41;100.00;100898.09;5087259;28;20459;-71
2022/12/22 05:52:23;;;;;;;531.50;89.00;;;;;;;5.38;100.00;100894.88;5084351;28;20074;-71
2022/12/22 05:54:49;;;;;;;355.67;77.38;;;;;;;5.39;100.00;100894.78;5087864;28;20058;-71
2022/12/22 05:57:14;;;;;;;610.38;89.88;;;;;;;5.42;100.00;100898.91;5086362;28;20479;-71
2022/12/22 05:59:40;;;;;;;439.20;82.63;;;;;;;5.42;100.00;100889.41;5089107;28;20119;-71
2022/12/22 06:02:05;;;;;;;673.20;95.22;;;;;;;5.43;100.00;100890.22;5080897;28;20036;-71
2022/12/22 06:04:30;;;;;;;415.20;82.40;;;;;;;5.42;100.00;100904.91;5084109;28;20029;-71
2022/12/22 06:06:56;;;;;;;574.67;92.40;;;;;;;5.41;100.00;100894.69;5090179;28;20032;-71
2022/12/22 06:09:21;;;;;;;400.38;75.93;;;;;;;5.39;100.00;100889.59;5086506;28;20125;-72
2022/12/22 06:11:47;;;;;;;452.65;81.00;;;;;;;5.41;100.00;100890.34;5087447;28;20035;-71
2022/12/22 06:14:12;;;;;;;668.80;94.63;;;;;;;5.41;100.00;100881.75;5092480;28;20027;-71
2022/12/22 06:16:37;;;;;;;747.38;102.60;;;;;;;5.41;100.00;100879.16;5091332;28;20038;-71
2022/12/22 06:19:03;;;;;;;778.72;103.25;;;;;;;5.37;100.00;100875.13;5093768;27;20078;-71
2022/12/22 06:21:28;;;;;;;401.88;81.28;;;;;;;5.35;100.00;100872.66;5088714;28;20040;-71
2022/12/22 06:23:54;;;;;;;691.92;96.60;;;;;;;5.38;100.00;100871.63;5087891;28;20028;-72
2022/12/22 06:26:20;;;;;;;539.30;88.10;;;;;;;5.41;100.00;100882.56;5086710;28;20390;-71
2022/12/22 06:28:45;;;;;;;443.27;89.05;;;;;;;5.44;100.00;100882.38;5093844;28;20028;-71
2022/12/22 06:31:11;;;;;;;420.98;87.43;;;;;;;5.45;100.00;100890.97;5091026;28;20149;-71
2022/12/22 06:33:36;;;;;;;372.85;81.63;;;;;;;5.46;100.00;100890.03;5085727;28;20449;-71
2022/12/22 06:36:06;;;;;;;367.60;83.43;;;;;;;5.44;100.00;100889.31;5086747;28;20481;-71
2022/12/22 06:38:32;;;;;;;300.02;79.38;;;;;;;5.41;100.00;100877.41;5090770;28;20036;-71
2022/12/22 06:40:58;;;;;;;365.80;84.57;;;;;;;5.43;100.00;100877.31;5086894;28;20028;-71
2022/12/22 06:43:24;;;;;;;381.33;76.10;;;;;;;5.44;100.00;100882.38;5093028;28;20594;-72
2022/12/22 06:45:49;;;;;;;315.85;81.72;;;;;;;5.53;100.00;100886.94;5088710;28;20032;-72
2022/12/22 06:48:15;;;;;;;466.08;89.68;;;;;;;5.60;100.00;100887.38;5094919;28;20036;-72
2022/12/22 06:50:41;;;;;;;527.72;90.97;;;;;;;5.60;100.00;100883.03;5084224;28;20434;-71
2022/12/22 06:53:07;;;;;;;383.42;88.57;;;;;;;5.65;100.00;100890.47;5091530;28;20062;-71
2022/12/22 06:55:33;;;;;;;284.88;84.35;;;;;;;5.77;100.00;100904.31;5087603;28;20636;-71
2022/12/22 06:57:58;;;;;;;326.05;83.15;;;;;;;5.80;100.00;100910.09;5087351;28;20036;-71
2022/12/22 07:00:24;;;;;;;440.00;88.82;;;;;;;5.76;100.00;100902.66;5087892;28;20035;-71
2022/12/22 07:02:49;;;;;;;670.85;97.10;;;;;;;5.74;100.00;100894.19;5083616;28;20024;-71
2022/12/22 07:05:15;;;;;;;546.88;96.88;;;;;;;5.73;100.00;100900.28;5088241;28;20032;-71
2022/12/22 07:07:40;;;;;;;491.20;93.30;;;;;;;5.67;100.00;100888.63;5086106;28;20040;-71
2022/12/22 07:10:06;;;;;;;449.48;93.85;;;;;;;5.59;100.00;100880.53;5089543;28;20051;-71
2022/12/22 07:12:32;;;;;;;541.97;97.18;;;;;;;5.56;100.00;100879.00;5068461;28;20027;-72
2022/12/22 07:14:57;;;;;;;1069.75;116.88;;;;;;;5.45;100.00;100873.69;5073181;28;20074;-71
2022/12/22 07:17:23;;;;;;;988.95;114.53;;;;;;;5.36;100.00;100876.88;5084076;28;20074;-71
2022/12/22 07:19:48;;;;;;;913.28;114.90;;;;;;;5.35;100.00;100872.66;5073355;28;20066;-72
2022/12/22 07:22:13;;;;;;;783.70;106.78;;;;;;;5.34;100.00;100865.81;5091148;28;20469;-72
2022/12/22 07:24:39;;;;;;;951.63;114.80;;;;;;;5.34;100.00;100860.66;5093410;28;20455;-72
2022/12/22 07:27:04;;;;;;;882.85;112.10;;;;;;;5.33;100.00;100866.75;5085610;28;20467;-72
2022/12/22 07:29:30;;;;;;;764.08;106.28;;;;;;;5.36;100.00;100873.47;5090247;28;20131;-72
2022/12/22 07:31:55;;;;;;;863.90;103.45;;;;;;;5.41;100.00;100858.50;5089016;28;20459;-73
2022/12/22 07:34:21;;;;;;;976.55;115.32;;;;;;;5.46;100.00;100865.00;5090045;28;20106;-72
2022/12/22 07:36:46;;;;;;;720.92;103.10;;;;;;;5.49;100.00;100858.81;5088384;28;20040;-72
2022/12/22 07:39:12;;;;;;;457.52;90.13;;;;;;;5.48;100.00;100858.00;5089416;28;20093;-72
2022/12/22 07:44:22;;;;;;;501.63;85.50;;;;;;;5.60;100.00;100867.50;5089113;28;20051;-71
2022/12/22 07:46:48;;;;;;;487.45;88.60;;;;;;;5.65;100.00;100860.28;5093644;28;20063;-72
2022/12/22 07:52:18;;;;;;;351.50;82.43;;;;;;;5.72;100.00;100885.69;5061720;28;20040;-72
2022/12/22 07:54:43;;;;;;;337.65;76.60;;;;;;;5.76;100.00;100881.97;5071627;28;20044;-71
2022/12/22 07:57:08;;;;;;;409.88;86.10;;;;;;;5.78;100.00;100882.69;5064601;28;20049;-71
2022/12/22 07:59:34;;;;;;;273.88;77.53;;;;;;;5.79;100.00;100894.69;5066537;28;20055;-71
2022/12/22 08:01:59;;;;;;;316.27;78.90;;;;;;;5.78;100.00;100891.28;5072641;28;20115;-72
2022/12/22 08:04:25;;;;;;;461.85;85.13;;;;;;;5.79;100.00;100897.28;5071947;28;20094;-72
2022/12/22 08:06:50;;;;;;;533.10;85.35;;;;;;;5.83;100.00;100904.72;5062022;28;20507;-72
2022/12/22 08:09:18;;;;;;;433.77;81.22;;;;;;;5.87;100.00;100895.84;5066409;28;21082;-72
2022/12/22 08:11:43;;;;;;;319.58;77.80;;;;;;;5.90;100.00;100900.00;5061048;28;20036;-71
2022/12/22 08:14:09;;;;;;;410.73;86.18;;;;;;;5.91;100.00;100897.31;5060162;28;20039;-71
2022/12/22 08:16:34;;;;;;;481.95;91.15;;;;;;;5.91;100.00;100905.06;5063538;28;20052;-71
2022/12/22 08:19:00;;;;;;;797.50;110.60;;;;;;;5.89;100.00;100906.13;5061803;28;20033;-71
2022/12/22 08:21:25;;;;;;;486.35;92.53;;;;;;;5.88;100.00;100901.84;5046678;28;20111;-71
2022/12/22 08:23:51;;;;;;;558.92;98.45;;;;;;;5.86;100.00;100894.19;5084016;28;20040;-71
2022/12/22 08:26:39;;;;;;;498.60;92.40;;;;;;;5.87;100.00;100902.78;5086270;28;20036;-71
2022/12/22 08:29:17;;;;;;;766.53;106.40;;;;;;;5.86;100.00;100903.69;5089390;28;20036;-71
2022/12/22 08:31:43;;;;;;;590.30;97.47;;;;;;;5.85;100.00;100905.47;5081857;28;20035;-71
2022/12/22 08:34:11;;;;;;;667.65;105.13;;;;;;;5.86;100.00;100906.28;5083199;28;20531;-71
2022/12/22 08:36:42;;;;;;;717.45;98.47;;;;;;;5.83;100.00;100914.25;5082566;28;20039;-72
2022/12/22 08:39:09;;;;;;;517.20;92.55;;;;;;;5.77;100.00;100915.47;5091763;28;20039;-72
2022/12/22 08:41:51;;;;;;;751.10;102.28;;;;;;;5.67;100.00;100925.59;5086810;28;20462;-72
2022/12/22 08:44:26;;;;;;;629.55;95.55;;;;;;;5.65;100.00;100922.31;5084862;28;20118;-72
2022/12/22 08:46:53;;;;;;;771.10;100.13;;;;;;;5.63;100.00;100919.00;5087055;28;20176;-72
2022/12/22 08:49:19;;;;;;;544.58;98.53;;;;;;;5.66;100.00;100920.56;5090196;28;20032;-71
2022/12/22 08:51:45;;;;;;;444.25;83.82;;;;;;;5.65;100.00;100917.16;5085312;28;20031;-71
2022/12/22 08:54:11;;;;;;;443.52;82.80;;;;;;;5.68;100.00;100916.91;5081926;28;20119;-71
2022/12/22 08:56:37;;;;;;;471.33;81.00;;;;;;;5.74;100.00;100922.63;5080781;28;20130;-72
2022/12/22 08:59:06;;;;;;;387.08;74.38;;;;;;;5.76;100.00;100918.16;5085848;28;20039;-72
2022/12/22 09:01:32;;;;;;;280.00;67.20;;;;;;;5.76;100.00;100919.00;5083999;28;20447;-72
2022/12/22 09:03:57;;;;;;;292.25;66.88;;;;;;;5.75;100.00;100919.94;5082227;28;20058;-72
2022/12/22 09:06:24;;;;;;;268.33;66.10;;;;;;;5.78;100.00;100924.91;5085678;28;20340;-72
2022/12/22 09:08:57;;;;;;;236.68;63.50;;;;;;;5.83;100.00;100924.59;5081045;28;20024;-74
2022/12/22 09:11:23;;;;;;;247.38;62.80;;;;;;;5.88;100.00;100927.69;5083535;28;20039;-73
2022/12/22 09:13:53;;;;;;;283.33;63.00;;;;;;;5.92;100.00;100924.84;5087607;28;20027;-72
2022/12/22 09:16:19;;;;;;;216.20;57.20;;;;;;;5.94;100.00;100924.72;5081724;28;20115;-73
2022/12/22 09:18:45;;;;;;;250.43;57.53;;;;;;;5.96;100.00;100920.28;5089785;28;20031;-72
2022/12/22 09:21:11;;;;;;;278.48;57.72;;;;;;;5.99;100.00;100925.25;5082161;28;20040;-72
2022/12/22 09:23:36;;;;;;;259.85;58.58;;;;;;;6.02;100.00;100913.88;5089655;28;20035;-72
2022/12/22 09:26:12;;;;;;;220.32;57.92;;;;;;;5.96;100.00;100909.94;5087241;28;20416;-72
2022/12/22 09:28:38;;;;;;;264.98;59.88;;;;;;;5.95;100.00;100906.53;5084810;28;20107;-72
2022/12/22 09:31:05;;;;;;;216.50;55.50;;;;;;;6.01;100.00;100902.69;5086147;28;20111;-72
2022/12/22 09:33:32;;;;;;;218.43;58.75;;;;;;;6.02;100.00;100899.19;5087161;28;20558;-72
2022/12/22 09:36:00;;;;;;;229.85;62.40;;;;;;;5.98;100.00;100898.56;5086586;28;20028;-72
2022/12/22 09:38:27;;;;;;;243.63;59.97;;;;;;;6.00;100.00;100898.47;5086074;28;20032;-72
2022/12/22 09:40:56;;;;;;;204.60;58.63;;;;;;;5.98;100.00;100901.16;5086276;28;20023;-72
2022/12/22 09:43:28;;;;;;;208.70;55.58;;;;;;;6.03;100.00;100905.19;5090505;28;20475;-72
2022/12/22 09:45:57;;;;;;;217.75;58.25;;;;;;;6.10;100.00;100901.25;5090250;28;20045;-70
2022/12/22 09:48:27;;;;;;;196.25;53.47;;;;;;;6.12;100.00;100900.22;5086238;28;20055;-71
2022/12/22 09:50:52;;;;;;;213.15;55.22;;;;;;;6.16;100.00;100903.38;5092425;28;20032;-71
2022/12/22 09:53:22;;;;;;;193.00;52.03;;;;;;;6.22;100.00;100905.56;5088710;28;20084;-71
2022/12/22 09:55:49;;;;;;;211.55;52.58;;;;;;;6.26;100.00;100894.88;5087745;28;20046;-71
2022/12/22 09:58:30;;;;;;;187.50;53.15;;;;;;;6.28;100.00;100900.78;5088996;28;20040;-72
2022/12/22 10:01:33;;;;;;;191.98;52.30;;;;;;;6.25;100.00;100885.47;5091744;28;20036;-72
2022/12/22 10:04:11;;;;;;;183.25;54.20;;;;;;;6.24;100.00;100870.06;5087919;28;20383;-72
2022/12/22 10:06:45;;;;;;;178.10;52.60;;;;;;;6.32;100.00;100867.75;5090519;28;20050;-72
2022/12/22 10:09:31;;;;;;;167.18;50.15;;;;;;;6.32;100.00;100881.53;5084149;28;20106;-73
2022/12/22 10:12:04;;;;;;;148.02;49.35;;;;;;;6.36;100.00;100876.97;5084933;28;20464;-70
2022/12/22 10:14:38;;;;;;;152.65;51.28;;;;;;;6.36;100.00;100876.13;5089096;28;20083;-73
2022/12/22 10:17:17;;;;;;;140.57;47.63;;;;;;;6.39;100.00;100881.94;5091010;28;20379;-73
2022/12/22 10:19:43;;;;;;;125.15;46.97;;;;;;;6.42;100.00;100865.34;5088140;28;20032;-72
2022/12/22 10:22:26;;;;;;;120.30;43.40;;;;;;;6.41;100.00;100855.94;5084455;28;20033;-73
2022/12/22 10:24:52;;;;;;;126.47;46.53;;;;;;;6.51;100.00;100852.59;5086541;28;20409;-72
2022/12/22 10:27:20;;;;;;;127.32;47.13;;;;;;;6.62;100.00;100849.22;5092333;28;20028;-73
2022/12/22 10:29:45;;;;;;;123.97;48.67;;;;;;;6.68;100.00;100856.53;5086704;28;20115;-73
2022/12/22 10:32:13;;;;;;;115.72;47.17;;;;;;;6.69;100.00;100847.84;5086943;28;20048;-72
2022/12/22 10:35:01;;;;;;;111.10;46.25;;;;;;;6.59;100.00;100846.88;5085008;28;20074;-72
2022/12/22 10:37:33;;;;;;;104.97;46.58;;;;;;;6.63;100.00;100843.94;5084727;28;20586;-72
2022/12/22 10:40:15;;;;;;;111.38;48.95;;;;;;;6.66;100.00;100840.28;5088501;28;20036;-73
2022/12/22 10:42:52;;;;;;;105.10;47.28;;;;;;;6.59;100.00;100839.94;5084453;28;20063;-73
2022/12/22 10:45:21;;;;;;;101.45;45.65;;;;;;;6.52;100.00;100830.94;5089186;28;20062;-73
2022/12/22 10:47:49;;;;;;;110.78;47.38;;;;;;;6.53;100.00;100831.78;5080352;28;20035;-71
2022/12/22 10:50:15;;;;;;;100.93;45.75;;;;;;;6.49;100.00;100831.16;5085083;28;20115;-72
2022/12/22 10:52:49;;;;;;;100.97;46.15;;;;;;;6.50;100.00;100830.22;5084098;28;20523;-72
2022/12/22 10:55:22;;;;;;;93.30;43.97;;;;;;;6.45;100.00;100828.91;5087346;28;20083;-73
2022/12/22 10:57:49;;;;;;;99.35;44.80;;;;;;;6.45;100.00;100815.97;5084495;28;20036;-72
2022/12/22 11:00:23;;;;;;;98.57;45.30;;;;;;;6.46;100.00;100820.19;5083010;28;20032;-72
2022/12/22 11:02:53;;;;;;;107.13;49.40;;;;;;;6.51;100.00;100826.72;5097515;28;20390;-73
2022/12/22 11:05:19;;;;;;;109.07;51.70;;;;;;;6.61;100.00;100809.59;5083532;28;20028;-73
2022/12/22 11:07:46;;;;;;;108.30;48.13;;;;;;;6.67;100.00;100816.06;5086187;28;20085;-72
2022/12/22 11:10:41;;;;;;;114.82;51.35;;;;;;;6.75;100.00;100805.97;5092957;28;20039;-73
2022/12/22 11:13:18;;;;;;;108.07;49.10;;;;;;;6.87;100.00;100815.44;5088767;28;20028;-72
2022/12/22 11:15:50;;;;;;;109.25;50.67;;;;;;;6.88;100.00;100811.91;5083235;28;20111;-73
2022/12/22 11:18:50;;;;;;;108.57;49.83;;;;;;;6.87;100.00;100817.22;5087372;28;20055;-73
2022/12/22 11:21:25;;;;;;;111.65;49.72;;;;;;;6.81;100.00;100810.72;5089525;28;20195;-73
2022/12/22 11:24:02;;;;;;;108.70;51.10;;;;;;;6.81;100.00;100815.88;5090096;28;20453;-74
2022/12/22 11:26:51;;;;;;;104.70;49.90;;;;;;;6.75;100.00;100805.16;5094356;28;20032;-73
2022/12/22 11:29:46;;;;;;;113.68;50.35;;;;;;;6.77;100.00;100803.28;5087391;28;20024;-72
2022/12/22 11:32:21;;;;;;;120.50;52.58;;;;;;;6.78;100.00;100810.94;5088801;28;20038;-72
2022/12/22 11:35:05;;;;;;;110.28;51.17;;;;;;;6.77;100.00;100813.63;5085912;28;20144;-72
2022/12/22 11:37:46;;;;;;;107.57;51.35;;;;;;;6.80;100.00;100810.81;5086450;28;20658;-72
2022/12/22 11:40:23;;;;;;;110.25;50.88;;;;;;;6.71;100.00;100808.91;5091161;28;20089;-72
2022/12/22 11:42:53;;;;;;;110.97;52.80;;;;;;;6.76;100.00;100802.44;5082972;28;20125;-73
2022/12/22 11:45:43;;;;;;;113.57;53.17;;;;;;;6.74;100.00;100799.13;5084522;28;20040;-73
2022/12/22 11:48:27;;;;;;;129.38;55.03;;;;;;;6.75;100.00;100793.03;5091185;28;20561;-73
2022/12/22 11:50:56;;;;;;;113.90;53.50;;;;;;;6.84;100.00;100800.13;5092265;28;20154;-72
2022/12/22 11:53:33;;;;;;;124.90;56.50;;;;;;;6.93;100.00;100804.63;5092875;28;20459;-73
2022/12/22 11:56:24;;;;;;;122.95;53.83;;;;;;;6.97;100.00;100802.66;5086099;28;20075;-72
2022/12/22 11:58:55;;;;;;;112.20;54.80;;;;;;;6.93;100.00;100799.47;5073631;28;20505;-72
2022/12/22 12:01:46;;;;;;;117.85;55.50;;;;;;;6.94;100.00;100801.09;5078962;28;20036;-73
2022/12/22 12:04:49;;;;;;;113.65;54.25;;;;;;;6.91;100.00;100796.16;5084239;28;20028;-73
2022/12/22 12:07:26;;;;;;;111.57;53.35;;;;;;;6.87;100.00;100789.53;5084527;28;20474;-72
2022/12/22 12:10:28;;;;;;;113.30;52.63;;;;;;;6.87;100.00;100789.53;5079936;28;20039;-73
2022/12/22 12:13:11;;;;;;;107.25;53.88;;;;;;;6.88;100.00;100773.06;5066826;28;20139;-73
2022/12/22 12:15:39;;;;;;;106.22;51.88;;;;;;;6.83;100.00;100780.34;5078004;28;20064;-73
2022/12/22 12:18:08;;;;;;;106.40;50.38;;;;;;;6.87;100.00;100779.19;5081294;28;20040;-73
2022/12/22 12:20:45;;;;;;;99.93;50.55;;;;;;;6.85;100.00;100767.28;5085066;28;20174;-72
2022/12/22 12:23:39;;;;;;;99.45;50.40;;;;;;;6.90;100.00;100760.00;5084171;28;20463;-73
2022/12/22 12:26:30;;;;;;;107.53;52.10;;;;;;;6.94;100.00;100748.47;5080867;28;20036;-73
2022/12/22 12:29:12;;;;;;;105.90;52.50;;;;;;;6.96;100.00;100737.06;5086494;28;20542;-73
2022/12/22 12:31:44;;;;;;;102.05;51.35;;;;;;;7.06;100.00;100726.00;5096315;28;20478;-73
2022/12/22 12:34:14;;;;;;;110.70;51.83;;;;;;;7.18;100.00;100725.06;5088842;28;20036;-73
2022/12/22 12:36:56;;;;;;;109.72;54.72;;;;;;;7.21;100.00;100728.25;5081608;28;20070;-73
2022/12/22 12:39:25;;;;;;;109.57;54.50;;;;;;;7.33;100.00;100726.50;5089627;28;20170;-73
2022/12/22 12:42:11;;;;;;;108.05;55.28;;;;;;;7.38;100.00;100732.16;5079395;28;20117;-72
2022/12/22 12:44:37;;;;;;;107.45;53.22;;;;;;;7.42;100.00;100728.38;5079157;28;20086;-73
2022/12/22 12:47:03;;;;;;;107.80;53.28;;;;;;;7.39;100.00;100726.03;5085027;28;20064;-72
2022/12/22 12:49:34;;;;;;;110.72;54.42;;;;;;;7.41;100.00;100716.38;5084812;28;20028;-72
2022/12/22 12:52:01;;;;;;;97.85;52.53;;;;;;;7.42;100.00;100707.66;5080585;28;20050;-73
2022/12/22 12:54:36;;;;;;;99.93;50.95;;;;;;;7.36;100.00;100717.66;5086643;28;20054;-72
2022/12/22 12:57:23;;;;;;;103.90;53.45;;;;;;;7.36;100.00;100717.66;5083472;28;20074;-72
2022/12/22 12:59:50;;;;;;;113.25;55.42;;;;;;;7.40;100.00;100709.53;5080591;28;20268;-72
2022/12/22 13:02:31;;;;;;;104.35;54.58;;;;;;;7.43;100.00;100713.66;5086678;28;20039;-72
2022/12/22 13:05:11;;;;;;;118.25;56.92;;;;;;;7.42;100.00;100706.81;5081898;28;20024;-73
2022/12/22 13:08:04;;;;;;;114.07;56.22;;;;;;;7.32;100.00;100701.50;5085013;28;20432;-73
2022/12/22 13:10:30;;;;;;;106.28;53.05;;;;;;;7.24;100.00;100706.47;5068145;28;20900;-73
2022/12/22 13:12:57;;;;;;;113.28;54.45;;;;;;;7.29;100.00;100701.75;5080760;28;20395;-73
2022/12/22 13:15:35;;;;;;;117.05;55.60;;;;;;;7.28;100.00;100705.28;5086579;28;20104;-73
2022/12/22 13:18:04;;;;;;;113.13;57.53;;;;;;;7.25;100.00;100703.75;5082319;28;20063;-73
2022/12/22 13:20:33;;;;;;;118.45;58.08;;;;;;;7.25;100.00;100701.16;5082631;28;20394;-73
2022/12/22 13:23:02;;;;;;;125.47;63.28;;;;;;;7.30;100.00;100693.03;5078176;28;20036;-73
2022/12/22 13:25:48;;;;;;;131.27;62.35;;;;;;;7.26;100.00;100689.03;5085486;28;20395;-73
2022/12/22 13:28:16;;;;;;;125.03;59.88;;;;;;;7.29;100.00;100696.56;5086172;28;20132;-73
2022/12/22 13:30:52;;;;;;;133.65;62.97;;;;;;;7.30;100.00;100709.41;5086246;28;20428;-73
2022/12/22 13:33:21;;;;;;;;;;;;;;;7.25;100.00;100702.91;5083266;28;20039;-73
2022/12/22 13:35:48;;;;;;;108.93;53.25;;;;;;;7.28;100.00;100707.88;5087714;28;19939;-73
2022/12/22 13:38:35;;;;;;;124.50;56.90;;;;;;;7.33;100.00;100708.34;5085157;28;20043;-74
2022/12/22 13:41:19;;;;;;;127.75;59.35;;;;;;;7.37;100.00;100717.53;5084113;28;20032;-73
2022/12/22 13:43:52;;;;;;;130.02;60.17;;;;;;;7.37;100.00;100714.94;5086642;28;20110;-73
2022/12/22 13:46:17;;;;;;;141.50;62.50;;;;;;;7.38;100.00;100711.41;5083582;28;20055;-73
2022/12/22 13:48:46;;;;;;;163.82;64.55;;;;;;;7.37;100.00;100709.78;5086871;28;20482;-73
2022/12/22 13:51:21;;;;;;;150.88;65.38;;;;;;;7.36;100.00;100715.88;5084312;28;20036;-72
2022/12/22 13:53:51;;;;;;;153.65;68.18;;;;;;;7.32;100.00;100722.25;5080583;28;20076;-73
2022/12/22 13:56:35;;;;;;;145.13;64.90;;;;;;;7.27;100.00;100707.06;5095624;28;20043;-72
2022/12/22 13:59:01;;;;;;;144.57;58.72;;;;;;;7.28;100.00;100710.47;5091052;28;20024;-74
2022/12/22 14:01:27;;;;;;;152.15;65.55;;;;;;;7.29;100.00;100706.94;5084261;28;20500;-72
2022/12/22 14:03:58;;;;;;;158.75;70.25;;;;;;;7.31;100.00;100715.41;5088035;28;20039;-73
2022/12/22 14:06:27;;;;;;;153.05;69.70;;;;;;;7.22;100.00;100716.13;5087857;28;20036;-72
2022/12/22 14:08:52;;;;;;;146.65;66.55;;;;;;;7.20;100.00;100713.63;5088336;28;20035;-73
2022/12/22 14:11:18;;;;;;;153.65;67.90;;;;;;;7.22;100.00;100706.56;5083740;28;20036;-72
2022/12/22 14:13:44;;;;;;;149.98;68.80;;;;;;;7.23;100.00;100702.22;5082343;28;20028;-73
2022/12/22 14:16:13;;;;;;;138.48;66.47;;;;;;;7.23;100.00;100708.22;5088705;28;20916;-72
2022/12/22 14:18:39;;;;;;;148.82;64.05;;;;;;;7.21;100.00;100704.09;5088275;28;20035;-73
2022/12/22 14:21:06;;;;;;;144.45;64.32;;;;;;;7.22;100.00;100701.38;5092635;28;20138;-73
2022/12/22 14:23:37;;;;;;;149.55;65.75;;;;;;;7.26;100.00;100712.34;5088847;28;20047;-72
2022/12/22 14:26:12;;;;;;;147.52;65.35;;;;;;;7.25;100.00;100710.69;5089067;28;20028;-72
2022/12/22 14:28:52;;;;;;;149.95;64.40;;;;;;;7.23;100.00;100712.59;5086571;28;20035;-72
2022/12/22 14:31:18;;;;;;;145.82;63.28;;;;;;;7.22;100.00;100710.94;5090573;28;20035;-72
2022/12/22 14:34:04;;;;;;;141.45;61.90;;;;;;;7.21;100.00;100714.47;5090506;28;20380;-73
2022/12/22 14:36:44;;;;;;;151.02;65.78;;;;;;;7.21;100.00;100709.28;5090187;28;20405;-72
2022/12/22 14:39:21;;;;;;;152.35;65.43;;;;;;;7.21;100.00;100711.88;5092252;28;20035;-72
2022/12/22 14:41:50;;;;;;;147.95;64.15;;;;;;;7.22;100.00;100716.13;5083395;28;20085;-73
2022/12/22 14:44:39;;;;;;;149.60;64.95;;;;;;;7.23;100.00;100717.75;5092006;28;20031;-73
2022/12/22 14:47:10;;;;;;;138.27;65.05;;;;;;;7.21;100.00;100722.25;5095360;28;20043;-72
2022/12/22 14:49:49;;;;;;;147.60;64.03;;;;;;;7.20;100.00;100723.19;5093367;28;20118;-72
2022/12/22 14:52:44;;;;;;;151.80;64.25;;;;;;;7.19;100.00;100722.34;5084681;28;20052;-72
2022/12/22 14:55:33;;;;;;;147.68;62.20;;;;;;;7.21;100.00;100730.00;5084156;28;20044;-73
2022/12/22 14:58:01;;;;;;;138.75;61.00;;;;;;;7.19;100.00;100722.34;5091935;28;20085;-72